createdAt,value
2019-02-10T00:00:49.822Z,3.47
2019-02-10T00:01:57.118Z,2.87
2019-02-10T00:03:05.095Z,3.73
2019-02-10T00:04:10.427Z,3.07
2019-02-10T00:05:15.704Z,3.70
2019-02-10T00:06:24.835Z,3.93
2019-02-10T00:07:27.878Z,3.37
2019-02-10T00:08:33.189Z,3.33
2019-02-10T00:09:38.620Z,3.63
2019-02-10T00:10:43.851Z,3.70
2019-02-10T00:11:49.246Z,3.87
2019-02-10T00:13:25.453Z,3.57
2019-02-10T00:14:31.261Z,3.53
2019-02-10T00:15:36.577Z,3.67
2019-02-10T00:16:41.841Z,3.63
2019-02-10T00:17:47.237Z,3.87
2019-02-10T00:18:52.574Z,3.37
2019-02-10T00:19:57.924Z,3.30
2019-02-10T00:21:03.235Z,4.17
2019-02-10T00:22:08.654Z,3.60
2019-02-10T00:23:14.011Z,4.57
2019-02-10T00:24:19.269Z,3.30
2019-02-10T00:25:24.564Z,3.23
2019-02-10T00:26:33.004Z,3.57
2019-02-10T00:27:38.476Z,3.13
2019-02-10T00:28:43.843Z,3.63
2019-02-10T00:29:49.165Z,3.83
2019-02-10T00:30:54.505Z,3.20
2019-02-10T00:31:59.727Z,4.23
2019-02-10T00:33:06.052Z,3.87
2019-02-10T00:34:11.304Z,3.07
2019-02-10T00:35:16.636Z,3.17
2019-02-10T00:36:22.035Z,3.57
2019-02-10T00:37:27.334Z,4.03
2019-02-10T00:38:32.702Z,3.20
2019-02-10T00:39:38.114Z,3.73
2019-02-10T00:40:43.313Z,3.70
2019-02-10T00:41:48.601Z,3.03
2019-02-10T00:42:53.849Z,3.10
2019-02-10T00:43:59.162Z,3.63
2019-02-10T00:45:04.564Z,4.07
2019-02-10T00:46:09.913Z,4.07
2019-02-10T00:47:15.274Z,2.97
2019-02-10T00:48:20.482Z,3.23
2019-02-10T00:49:25.794Z,4.13
2019-02-10T00:50:31.060Z,3.57
2019-02-10T00:51:36.533Z,3.67
2019-02-10T00:52:41.934Z,3.53
2019-02-10T00:53:47.324Z,2.87
2019-02-10T00:54:52.738Z,3.40
2019-02-10T00:55:58.040Z,3.27
2019-02-10T00:57:03.322Z,4.67
2019-02-10T00:58:08.694Z,4.07
2019-02-10T00:59:14.009Z,4.03
2019-02-10T01:00:19.499Z,2.73
2019-02-10T01:01:25.717Z,3.27
2019-02-10T01:02:31.190Z,3.73
2019-02-10T01:03:37.907Z,3.17
2019-02-10T01:04:43.251Z,4.30
2019-02-10T01:05:48.581Z,3.63
2019-02-10T01:06:53.859Z,4.00
2019-02-10T01:07:59.274Z,3.57
2019-02-10T01:09:05.595Z,3.37
2019-02-10T01:10:12.647Z,3.70
2019-02-10T01:11:17.946Z,3.77
2019-02-10T01:12:23.250Z,3.97
2019-02-10T01:13:28.999Z,3.57
2019-02-10T01:14:34.389Z,3.30
2019-02-10T01:15:39.613Z,4.00
2019-02-10T01:16:44.903Z,3.27
2019-02-10T01:17:50.228Z,3.77
2019-02-10T01:19:07.064Z,4.90
2019-02-10T01:20:12.415Z,3.47
2019-02-10T01:21:17.718Z,3.17
2019-02-10T01:22:23.046Z,3.23
2019-02-10T01:23:28.380Z,3.40
2019-02-10T01:24:33.717Z,3.43
2019-02-10T01:25:39.075Z,3.97
2019-02-10T01:26:44.374Z,4.13
2019-02-10T01:27:49.691Z,3.60
2019-02-10T01:28:55.062Z,3.77
2019-02-10T01:30:00.276Z,3.20
2019-02-10T01:31:05.611Z,3.37
2019-02-10T01:32:11.009Z,3.50
2019-02-10T01:33:16.290Z,3.90
2019-02-10T01:34:21.675Z,3.60
2019-02-10T01:35:27.019Z,3.23
2019-02-10T01:36:32.309Z,3.93
2019-02-10T01:37:37.649Z,3.93
2019-02-10T01:38:42.949Z,2.97
2019-02-10T01:39:48.209Z,3.47
2019-02-10T01:40:53.484Z,3.57
2019-02-10T01:41:58.815Z,3.77
2019-02-10T01:43:04.454Z,3.60
2019-02-10T01:44:09.867Z,4.10
2019-02-10T01:45:15.215Z,3.93
2019-02-10T01:46:20.418Z,3.77
2019-02-10T01:47:25.749Z,3.73
2019-02-10T01:48:31.085Z,3.33
2019-02-10T01:49:36.498Z,3.83
2019-02-10T01:50:41.778Z,3.17
2019-02-10T01:51:47.112Z,4.43
2019-02-10T01:52:52.397Z,3.73
2019-02-10T01:53:57.840Z,3.93
2019-02-10T01:55:03.129Z,4.10
2019-02-10T01:56:08.410Z,3.70
2019-02-10T01:57:13.729Z,3.53
2019-02-10T01:58:18.864Z,3.00
2019-02-10T01:59:24.151Z,3.73
2019-02-10T02:00:29.414Z,3.63
2019-02-10T02:01:34.684Z,3.77
2019-02-10T02:02:39.966Z,3.93
2019-02-10T02:03:45.345Z,3.53
2019-02-10T02:04:50.633Z,3.60
2019-02-10T02:05:55.944Z,4.40
2019-02-10T02:07:01.415Z,3.30
2019-02-10T02:08:06.637Z,3.20
2019-02-10T02:09:13.859Z,3.60
2019-02-10T02:10:19.090Z,3.33
2019-02-10T02:11:24.412Z,3.10
2019-02-10T02:12:29.668Z,3.23
2019-02-10T02:13:36.439Z,3.57
2019-02-10T02:14:41.893Z,4.10
2019-02-10T02:15:47.274Z,3.60
2019-02-10T02:16:52.530Z,3.23
2019-02-10T02:17:57.832Z,3.70
2019-02-10T02:19:03.209Z,2.60
2019-02-10T02:20:08.876Z,3.80
2019-02-10T02:21:14.130Z,3.13
2019-02-10T02:22:19.392Z,3.50
2019-02-10T02:23:24.802Z,3.93
2019-02-10T02:24:30.080Z,2.93
2019-02-10T02:25:35.388Z,3.50
2019-02-10T02:26:40.729Z,3.50
2019-02-10T02:27:46.107Z,3.63
2019-02-10T02:28:51.380Z,4.10
2019-02-10T02:29:56.742Z,4.20
2019-02-10T02:31:02.091Z,3.63
2019-02-10T02:32:07.459Z,4.30
2019-02-10T02:33:12.745Z,4.67
2019-02-10T02:34:17.906Z,3.87
2019-02-10T02:35:23.248Z,4.33
2019-02-10T02:36:28.591Z,3.20
2019-02-10T02:37:33.876Z,3.40
2019-02-10T02:38:39.164Z,3.87
2019-02-10T02:39:44.680Z,3.80
2019-02-10T02:40:50.001Z,3.67
2019-02-10T02:41:55.335Z,3.77
2019-02-10T02:43:00.522Z,3.70
2019-02-10T02:44:05.850Z,4.17
2019-02-10T02:45:12.793Z,3.93
2019-02-10T02:46:18.127Z,3.47
2019-02-10T02:47:23.372Z,4.10
2019-02-10T02:48:28.643Z,2.93
2019-02-10T02:49:34.041Z,4.33
2019-02-10T02:50:39.359Z,4.00
2019-02-10T02:51:44.600Z,3.80
2019-02-10T02:52:49.794Z,5.57
2019-02-10T02:53:54.985Z,3.30
2019-02-10T02:55:00.285Z,4.43
2019-02-10T02:56:05.673Z,3.40
2019-02-10T02:57:12.567Z,3.53
2019-02-10T02:58:17.772Z,2.57
2019-02-10T02:59:23.149Z,4.93
2019-02-10T03:00:28.408Z,3.77
2019-02-10T03:01:33.676Z,3.93
2019-02-10T03:02:39.079Z,3.90
2019-02-10T03:03:44.376Z,3.63
2019-02-10T03:04:49.710Z,3.37
2019-02-10T03:05:54.960Z,3.20
2019-02-10T03:07:00.196Z,3.77
2019-02-10T03:08:05.506Z,4.27
2019-02-10T03:09:10.675Z,4.13
2019-02-10T03:10:16.005Z,3.47
2019-02-10T03:11:21.318Z,3.43
2019-02-10T03:12:26.778Z,3.20
2019-02-10T03:13:32.175Z,3.73
2019-02-10T03:14:37.484Z,4.07
2019-02-10T03:15:42.848Z,4.13
2019-02-10T03:16:48.154Z,3.27
2019-02-10T03:17:53.315Z,3.87
2019-02-10T03:18:58.615Z,3.70
2019-02-10T03:20:03.844Z,4.47
2019-02-10T03:21:09.118Z,3.63
2019-02-10T03:22:14.380Z,4.20
2019-02-10T03:23:19.565Z,3.70
2019-02-10T03:24:24.803Z,3.77
2019-02-10T03:25:30.122Z,3.40
2019-02-10T03:26:35.396Z,4.70
2019-02-10T03:27:40.588Z,3.20
2019-02-10T03:28:45.842Z,3.13
2019-02-10T03:29:51.190Z,3.90
2019-02-10T03:30:56.472Z,3.07
2019-02-10T03:32:01.648Z,3.73
2019-02-10T03:33:06.860Z,3.03
2019-02-10T03:34:12.298Z,4.33
2019-02-10T03:35:17.651Z,4.43
2019-02-10T03:36:22.824Z,3.53
2019-02-10T03:37:28.152Z,4.17
2019-02-10T03:38:33.430Z,3.70
2019-02-10T03:39:38.718Z,4.20
2019-02-10T03:40:43.976Z,3.33
2019-02-10T03:41:50.248Z,3.30
2019-02-10T03:42:55.501Z,4.17
2019-02-10T03:44:00.743Z,4.00
2019-02-10T03:45:06.319Z,3.03
2019-02-10T03:46:11.578Z,3.93
2019-02-10T03:47:16.807Z,4.03
2019-02-10T03:48:22.075Z,3.33
2019-02-10T03:49:27.353Z,3.93
2019-02-10T03:50:32.626Z,3.77
2019-02-10T03:51:37.902Z,3.70
2019-02-10T03:52:43.149Z,3.70
2019-02-10T03:53:48.336Z,3.53
2019-02-10T03:54:53.660Z,3.40
2019-02-10T03:55:58.919Z,3.30
2019-02-10T03:57:04.093Z,3.57
2019-02-10T03:58:09.369Z,3.17
2019-02-10T03:59:14.638Z,3.80
2019-02-10T04:00:19.923Z,3.50
2019-02-10T04:01:25.174Z,3.93
2019-02-10T04:02:30.411Z,3.33
2019-02-10T04:03:35.615Z,4.00
2019-02-10T04:04:40.821Z,2.77
2019-02-10T04:05:46.063Z,3.63
2019-02-10T04:06:51.342Z,3.17
2019-02-10T04:07:56.696Z,3.47
2019-02-10T04:09:03.808Z,3.63
2019-02-10T04:10:09.946Z,3.87
2019-02-10T04:11:15.206Z,3.00
2019-02-10T04:12:20.516Z,3.60
2019-02-10T04:13:25.700Z,3.47
2019-02-10T04:14:31.162Z,2.53
2019-02-10T04:15:36.444Z,3.50
2019-02-10T04:16:41.741Z,4.00
2019-02-10T04:17:46.985Z,2.77
2019-02-10T04:18:52.257Z,2.87
2019-02-10T04:19:57.551Z,3.37
2019-02-10T04:21:02.846Z,2.60
2019-02-10T04:22:08.130Z,3.07
2019-02-10T04:23:13.284Z,2.40
2019-02-10T04:24:18.621Z,2.90
2019-02-10T04:25:23.892Z,3.30
2019-02-10T04:26:29.212Z,2.83
2019-02-10T04:27:34.361Z,3.23
2019-02-10T04:28:39.636Z,3.77
2019-02-10T04:29:44.820Z,2.90
2019-02-10T04:30:50.180Z,2.97
2019-02-10T04:31:55.426Z,3.10
2019-02-10T04:33:00.618Z,3.10
2019-02-10T04:34:05.870Z,2.50
2019-02-10T04:35:11.157Z,3.17
2019-02-10T04:36:16.401Z,3.10
2019-02-10T04:37:21.677Z,3.67
2019-02-10T04:38:26.828Z,3.30
2019-02-10T04:39:32.208Z,2.67
2019-02-10T04:40:37.514Z,3.33
2019-02-10T04:41:42.613Z,3.10
2019-02-10T04:42:47.914Z,3.40
2019-02-10T04:43:53.025Z,3.03
2019-02-10T04:44:58.322Z,3.37
2019-02-10T04:46:03.485Z,2.97
2019-02-10T04:47:08.738Z,3.87
2019-02-10T04:48:13.903Z,3.37
2019-02-10T04:49:19.201Z,2.70
2019-02-10T04:50:24.498Z,2.57
2019-02-10T04:51:29.831Z,3.40
2019-02-10T04:52:35.121Z,3.00
2019-02-10T04:53:40.381Z,2.87
2019-02-10T04:54:45.583Z,2.53
2019-02-10T04:56:10.822Z,3.70
2019-02-10T04:57:16.082Z,2.90
2019-02-10T04:58:21.322Z,2.93
2019-02-10T04:59:26.546Z,3.47
2019-02-10T05:00:31.965Z,3.60
2019-02-10T05:01:37.274Z,2.73
2019-02-10T05:02:42.464Z,2.60
2019-02-10T05:03:47.752Z,3.37
2019-02-10T05:04:52.991Z,2.70
2019-02-10T05:05:58.294Z,2.47
2019-02-10T05:07:03.465Z,3.30
2019-02-10T05:08:08.672Z,3.00
2019-02-10T05:09:13.945Z,2.47
2019-02-10T05:10:19.278Z,3.40
2019-02-10T05:11:24.546Z,2.97
2019-02-10T05:12:29.841Z,3.00
2019-02-10T05:13:35.154Z,3.20
2019-02-10T05:14:40.426Z,2.80
2019-02-10T05:15:45.705Z,2.43
2019-02-10T05:16:51.942Z,2.90
2019-02-10T05:17:57.116Z,2.60
2019-02-10T05:19:02.393Z,3.13
2019-02-10T05:20:07.739Z,2.60
2019-02-10T05:21:12.920Z,2.50
2019-02-10T05:22:18.184Z,2.90
2019-02-10T05:23:23.347Z,3.03
2019-02-10T05:24:28.692Z,2.63
2019-02-10T05:25:35.019Z,2.83
2019-02-10T05:26:40.272Z,3.47
2019-02-10T05:27:45.580Z,2.93
2019-02-10T05:28:50.836Z,2.87
2019-02-10T05:29:56.168Z,2.93
2019-02-10T05:31:01.390Z,2.17
2019-02-10T05:32:06.646Z,2.97
2019-02-10T05:33:11.811Z,3.20
2019-02-10T05:34:17.088Z,3.70
2019-02-10T05:35:22.294Z,2.47
2019-02-10T05:36:27.565Z,3.13
2019-02-10T05:37:32.731Z,3.33
2019-02-10T05:38:38.003Z,2.40
2019-02-10T05:39:43.137Z,3.17
2019-02-10T05:40:48.416Z,3.27
2019-02-10T05:41:53.560Z,2.30
2019-02-10T05:42:58.777Z,2.13
2019-02-10T05:44:04.162Z,2.53
2019-02-10T05:45:09.541Z,2.83
2019-02-10T05:46:14.813Z,3.30
2019-02-10T05:47:20.040Z,2.43
2019-02-10T05:48:25.212Z,3.70
2019-02-10T05:49:30.513Z,2.37
2019-02-10T05:50:35.824Z,2.30
2019-02-10T05:51:41.093Z,2.80
2019-02-10T05:52:46.337Z,2.67
2019-02-10T05:53:51.575Z,2.53
2019-02-10T05:54:56.913Z,2.27
2019-02-10T05:56:02.189Z,2.30
2019-02-10T05:57:07.390Z,2.17
2019-02-10T05:58:12.617Z,2.60
2019-02-10T05:59:17.744Z,2.57
2019-02-10T06:00:22.894Z,2.30
2019-02-10T06:01:59.152Z,1.70
2019-02-10T06:03:04.398Z,2.77
2019-02-10T06:04:09.635Z,2.70
2019-02-10T06:05:26.509Z,2.43
2019-02-10T06:06:31.779Z,2.33
2019-02-10T06:07:37.068Z,2.00
2019-02-10T06:08:42.433Z,2.07
2019-02-10T06:09:47.776Z,1.97
2019-02-10T06:10:53.038Z,2.43
2019-02-10T06:11:58.243Z,2.03
2019-02-10T06:13:03.539Z,1.90
2019-02-10T06:14:08.801Z,1.50
2019-02-10T06:15:14.189Z,2.30
2019-02-10T06:16:19.469Z,2.30
2019-02-10T06:17:24.791Z,2.40
2019-02-10T06:18:30.159Z,2.20
2019-02-10T06:19:35.376Z,2.17
2019-02-10T06:20:40.645Z,1.70
2019-02-10T06:21:45.914Z,3.03
2019-02-10T06:22:51.248Z,1.73
2019-02-10T06:23:56.445Z,1.93
2019-02-10T06:25:01.796Z,2.13
2019-02-10T06:26:06.917Z,2.20
2019-02-10T06:27:12.283Z,1.87
2019-02-10T06:28:17.707Z,1.83
2019-02-10T06:29:23.000Z,1.70
2019-02-10T06:30:28.239Z,2.00
2019-02-10T06:31:33.438Z,1.63
2019-02-10T06:32:38.800Z,1.57
2019-02-10T06:33:44.217Z,1.77
2019-02-10T06:34:49.395Z,1.70
2019-02-10T06:35:54.694Z,1.40
2019-02-10T06:37:00.044Z,2.10
2019-02-10T06:38:05.338Z,1.93
2019-02-10T06:39:10.628Z,1.80
2019-02-10T06:40:15.928Z,1.83
2019-02-10T06:41:21.277Z,1.90
2019-02-10T06:42:26.590Z,1.90
2019-02-10T06:43:31.923Z,2.20
2019-02-10T06:44:37.126Z,2.20
2019-02-10T06:45:42.497Z,2.13
2019-02-10T06:46:47.829Z,1.67
2019-02-10T06:47:53.120Z,1.40
2019-02-10T06:48:58.374Z,1.73
2019-02-10T06:50:03.849Z,1.90
2019-02-10T06:51:09.235Z,1.80
2019-02-10T06:52:14.437Z,1.80
2019-02-10T06:53:19.854Z,1.77
2019-02-10T06:54:25.153Z,2.13
2019-02-10T06:55:30.474Z,1.97
2019-02-10T06:56:35.731Z,1.57
2019-02-10T06:57:41.063Z,2.07
2019-02-10T06:58:48.196Z,1.50
2019-02-10T07:00:21.490Z,1.63
2019-02-10T07:01:45.657Z,2.20
2019-02-10T07:03:31.031Z,2.03
2019-02-10T07:04:36.306Z,1.50
2019-02-10T07:05:43.710Z,1.83
2019-02-10T07:06:48.913Z,2.07
2019-02-10T07:07:54.209Z,2.10
2019-02-10T07:08:59.456Z,1.67
2019-02-10T07:10:04.933Z,1.97
2019-02-10T07:11:10.178Z,1.80
2019-02-10T07:12:46.057Z,2.00
2019-02-10T07:13:56.865Z,1.30
2019-02-10T07:15:04.654Z,1.50
2019-02-10T07:16:46.240Z,1.50
2019-02-10T07:18:26.152Z,1.53
2019-02-10T07:20:14.383Z,1.43
2019-02-10T07:21:19.580Z,1.70
2019-02-10T07:22:56.696Z,2.00
2019-02-10T07:24:38.706Z,1.30
2019-02-10T07:25:49.399Z,1.60
2019-02-10T07:26:55.650Z,2.10
2019-02-10T07:28:51.114Z,1.80
2019-02-10T07:30:32.929Z,1.43
2019-02-10T07:31:58.817Z,1.80
2019-02-10T07:33:42.220Z,2.67
2019-02-10T07:35:17.935Z,1.90
2019-02-10T07:36:35.293Z,1.57
2019-02-10T07:37:57.292Z,1.90
2019-02-10T07:39:33.587Z,1.37
2019-02-10T07:41:53.524Z,1.80
2019-02-10T07:43:24.786Z,1.50
2019-02-10T07:45:12.476Z,1.80
2019-02-10T07:46:54.596Z,1.60
2019-02-10T07:48:10.767Z,1.70
2019-02-10T07:49:31.357Z,1.20
2019-02-10T07:51:21.896Z,1.30
2019-02-10T07:53:12.240Z,1.33
2019-02-10T07:55:03.370Z,1.40
2019-02-10T07:56:30.246Z,1.50
2019-02-10T07:58:08.369Z,1.43
2019-02-10T07:59:50.596Z,1.67
2019-02-10T08:01:42.332Z,1.30
2019-02-10T08:03:31.729Z,1.30
2019-02-10T08:05:23.613Z,1.20
2019-02-10T08:07:07.361Z,1.47
2019-02-10T08:08:55.802Z,1.40
2019-02-10T08:10:27.444Z,1.50
2019-02-10T08:12:25.832Z,1.70
2019-02-10T08:14:12.139Z,1.30
2019-02-10T08:15:45.380Z,1.37
2019-02-10T08:17:11.060Z,1.57
2019-02-10T08:18:43.122Z,1.40
2019-02-10T08:20:16.882Z,1.60
2019-02-10T08:21:54.194Z,1.27
2019-02-10T08:23:19.083Z,1.30
2019-02-10T08:25:29.730Z,1.40
2019-02-10T08:27:03.309Z,1.37
2019-02-10T08:28:40.204Z,1.10
2019-02-10T08:30:38.073Z,1.50
2019-02-10T08:32:19.321Z,1.30
2019-02-10T08:33:49.198Z,1.10
2019-02-10T08:35:21.641Z,1.00
2019-02-10T08:37:19.223Z,1.10
2019-02-10T08:38:54.484Z,0.90
2019-02-10T08:40:35.614Z,1.30
2019-02-10T08:42:08.269Z,1.30
2019-02-10T08:43:44.373Z,0.93
2019-02-10T08:45:30.769Z,1.00
2019-02-10T08:47:10.740Z,1.60
2019-02-10T08:48:55.874Z,1.30
2019-02-10T08:50:37.030Z,0.90
2019-02-10T08:52:12.446Z,1.23
2019-02-10T08:53:30.322Z,1.20
2019-02-10T08:54:35.642Z,1.33
2019-02-10T08:55:40.899Z,1.80
2019-02-10T08:56:46.121Z,1.40
2019-02-10T08:57:51.394Z,1.30
2019-02-10T08:58:56.632Z,1.40
2019-02-10T09:00:01.848Z,1.07
2019-02-10T09:01:07.398Z,1.40
2019-02-10T09:02:12.588Z,1.23
2019-02-10T09:03:19.559Z,1.20
2019-02-10T09:04:24.659Z,1.40
2019-02-10T09:05:29.862Z,1.40
2019-02-10T09:06:35.140Z,1.10
2019-02-10T09:07:40.321Z,1.00
2019-02-10T09:08:45.503Z,1.27
2019-02-10T09:09:50.800Z,1.30
2019-02-10T09:10:56.043Z,1.30
2019-02-10T09:12:01.384Z,1.33
2019-02-10T09:13:06.749Z,1.10
2019-02-10T09:14:11.899Z,1.10
2019-02-10T09:15:17.275Z,1.10
2019-02-10T09:16:22.559Z,1.20
2019-02-10T09:17:27.768Z,1.30
2019-02-10T09:18:33.070Z,0.90
2019-02-10T09:19:38.326Z,1.10
2019-02-10T09:20:43.656Z,1.20
2019-02-10T09:21:48.887Z,1.20
2019-02-10T09:22:54.113Z,1.40
2019-02-10T09:23:59.532Z,1.10
2019-02-10T09:25:08.313Z,1.30
2019-02-10T09:26:13.558Z,1.10
2019-02-10T09:27:18.924Z,1.20
2019-02-10T09:28:24.150Z,1.10
2019-02-10T09:29:29.448Z,1.10
2019-02-10T09:30:34.730Z,1.30
2019-02-10T09:31:40.130Z,1.10
2019-02-10T09:32:45.348Z,1.10
2019-02-10T09:33:50.788Z,0.97
2019-02-10T09:34:56.570Z,1.10
2019-02-10T09:36:03.474Z,1.00
2019-02-10T09:37:08.787Z,1.10
2019-02-10T09:38:14.115Z,0.87
2019-02-10T09:39:19.390Z,0.97
2019-02-10T09:40:25.044Z,1.00
2019-02-10T09:41:30.605Z,1.10
2019-02-10T09:42:35.881Z,1.10
2019-02-10T09:43:41.363Z,1.20
2019-02-10T09:44:46.764Z,1.00
2019-02-10T09:45:51.977Z,0.90
2019-02-10T09:46:57.372Z,1.00
2019-02-10T09:48:02.667Z,1.13
2019-02-10T09:49:08.224Z,1.40
2019-02-10T09:50:16.191Z,1.20
2019-02-10T09:51:21.486Z,1.00
2019-02-10T09:52:26.651Z,1.00
2019-02-10T09:53:31.907Z,1.13
2019-02-10T09:54:37.197Z,1.27
2019-02-10T09:55:45.466Z,1.00
2019-02-10T09:56:50.824Z,1.20
2019-02-10T09:57:56.542Z,1.13
2019-02-10T09:59:01.772Z,1.00
2019-02-10T10:00:08.742Z,1.10
2019-02-10T10:01:14.775Z,1.20
2019-02-10T10:02:20.616Z,1.10
2019-02-10T10:03:25.875Z,1.23
2019-02-10T10:04:31.491Z,0.90
2019-02-10T10:05:36.743Z,0.83
2019-02-10T10:06:42.028Z,1.20
2019-02-10T10:07:47.219Z,1.37
2019-02-10T10:08:52.422Z,1.10
2019-02-10T10:09:57.748Z,1.10
2019-02-10T10:11:03.039Z,1.17
2019-02-10T10:12:08.430Z,1.00
2019-02-10T10:13:13.721Z,1.37
2019-02-10T10:14:19.785Z,1.07
2019-02-10T10:15:25.087Z,2.03
2019-02-10T10:16:30.319Z,1.10
2019-02-10T10:17:35.552Z,1.43
2019-02-10T10:18:40.863Z,1.13
2019-02-10T10:19:46.121Z,1.13
2019-02-10T10:20:51.416Z,0.97
2019-02-10T10:21:56.805Z,1.10
2019-02-10T10:23:02.105Z,1.03
2019-02-10T10:24:07.413Z,1.50
2019-02-10T10:25:12.895Z,1.30
2019-02-10T10:26:18.129Z,1.33
2019-02-10T10:27:23.417Z,1.17
2019-02-10T10:28:28.704Z,1.10
2019-02-10T10:29:33.928Z,1.20
2019-02-10T10:30:39.110Z,1.00
2019-02-10T10:31:44.374Z,1.17
2019-02-10T10:32:49.699Z,1.27
2019-02-10T10:33:55.041Z,1.00
2019-02-10T10:35:00.297Z,1.50
2019-02-10T10:36:05.547Z,1.10
2019-02-10T10:37:10.826Z,1.30
2019-02-10T10:38:16.086Z,1.20
2019-02-10T10:39:27.200Z,0.90
2019-02-10T10:40:28.167Z,0.80
2019-02-10T10:41:33.572Z,1.07
2019-02-10T10:42:39.063Z,0.93
2019-02-10T10:43:44.314Z,1.40
2019-02-10T10:44:49.636Z,1.30
2019-02-10T10:45:54.912Z,1.00
2019-02-10T10:47:00.279Z,0.83
2019-02-10T10:48:05.577Z,0.87
2019-02-10T10:49:10.741Z,0.90
2019-02-10T10:50:15.923Z,1.20
2019-02-10T10:51:21.224Z,1.17
2019-02-10T10:52:26.490Z,1.47
2019-02-10T10:53:32.751Z,0.90
2019-02-10T10:54:42.779Z,1.50
2019-02-10T10:55:44.899Z,1.27
2019-02-10T10:56:50.419Z,1.30
2019-02-10T10:57:55.745Z,1.10
2019-02-10T10:59:01.052Z,1.33
2019-02-10T11:00:06.908Z,1.23
2019-02-10T11:01:12.091Z,1.00
2019-02-10T11:02:17.510Z,0.50
2019-02-10T11:03:22.866Z,0.70
2019-02-10T11:04:28.113Z,0.87
2019-02-10T11:05:33.338Z,0.80
2019-02-10T11:06:38.773Z,1.00
2019-02-10T11:07:44.101Z,1.70
2019-02-10T11:08:49.370Z,0.70
2019-02-10T11:09:54.740Z,1.30
2019-02-10T11:10:59.979Z,1.03
2019-02-10T11:12:05.116Z,1.83
2019-02-10T11:13:10.416Z,1.93
2019-02-10T11:14:15.571Z,3.23
2019-02-10T11:15:20.728Z,1.73
2019-02-10T11:16:25.998Z,0.70
2019-02-10T11:17:31.274Z,0.73
2019-02-10T11:18:36.545Z,3.40
2019-02-10T11:19:41.844Z,1.53
2019-02-10T11:20:47.178Z,0.70
2019-02-10T11:21:52.454Z,0.60
2019-02-10T11:22:57.932Z,0.93
2019-02-10T11:24:03.269Z,2.30
2019-02-10T11:25:08.654Z,0.80
2019-02-10T11:26:13.865Z,1.20
2019-02-10T11:27:19.197Z,0.60
2019-02-10T11:28:24.448Z,0.60
2019-02-10T11:29:29.711Z,1.20
2019-02-10T11:30:34.970Z,0.90
2019-02-10T11:31:40.244Z,0.77
2019-02-10T11:32:45.492Z,0.90
2019-02-10T11:33:51.653Z,0.73
2019-02-10T11:34:56.908Z,0.60
2019-02-10T11:36:02.154Z,0.80
2019-02-10T11:37:07.430Z,0.80
2019-02-10T11:38:12.717Z,0.60
2019-02-10T11:39:18.049Z,0.90
2019-02-10T11:40:23.381Z,0.70
2019-02-10T11:41:28.678Z,0.80
2019-02-10T11:42:33.964Z,0.50
2019-02-10T11:43:39.241Z,0.80
2019-02-10T11:44:44.437Z,0.60
2019-02-10T11:45:49.715Z,0.63
2019-02-10T11:46:55.028Z,0.80
2019-02-10T11:48:00.463Z,0.50
2019-02-10T11:49:05.692Z,0.80
2019-02-10T11:50:11.083Z,0.80
2019-02-10T11:51:16.307Z,0.90
2019-02-10T11:52:23.257Z,0.60
2019-02-10T11:53:28.495Z,0.63
2019-02-10T11:54:33.687Z,0.80
2019-02-10T11:55:39.109Z,0.60
2019-02-10T11:56:44.320Z,0.80
2019-02-10T11:57:49.579Z,0.80
2019-02-10T11:58:54.837Z,0.80
2019-02-10T12:00:00.267Z,1.00
2019-02-10T12:01:05.421Z,0.80
2019-02-10T12:02:10.725Z,0.60
2019-02-10T12:03:15.981Z,0.80
2019-02-10T12:04:21.300Z,0.80
2019-02-10T12:05:26.478Z,0.63
2019-02-10T12:06:31.810Z,0.60
2019-02-10T12:07:36.967Z,1.10
2019-02-10T12:08:42.278Z,0.80
2019-02-10T12:09:51.734Z,1.20
2019-02-10T12:10:55.617Z,1.37
2019-02-10T12:12:00.835Z,1.30
2019-02-10T12:13:06.033Z,3.10
2019-02-10T12:14:13.195Z,1.73
2019-02-10T12:15:18.502Z,2.93
2019-02-10T12:16:23.815Z,1.63
2019-02-10T12:17:29.112Z,1.67
2019-02-10T12:18:42.083Z,2.40
2019-02-10T12:19:47.344Z,1.70
2019-02-10T12:20:52.654Z,1.10
2019-02-10T12:21:58.248Z,1.33
2019-02-10T12:23:03.483Z,2.67
2019-02-10T12:24:08.731Z,1.97
2019-02-10T12:25:14.029Z,2.50
2019-02-10T12:26:19.402Z,1.60
2019-02-10T12:27:24.708Z,1.60
2019-02-10T12:28:30.006Z,1.70
2019-02-10T12:29:35.280Z,1.40
2019-02-10T12:30:40.472Z,1.40
2019-02-10T12:31:45.746Z,1.50
2019-02-10T12:32:51.090Z,2.17
2019-02-10T12:33:56.372Z,2.93
2019-02-10T12:35:01.796Z,5.40
2019-02-10T12:36:07.022Z,3.37
2019-02-10T12:37:12.332Z,2.53
2019-02-10T12:38:19.149Z,2.57
2019-02-10T12:39:25.472Z,2.50
2019-02-10T12:40:30.642Z,2.10
2019-02-10T12:41:36.500Z,2.40
2019-02-10T12:42:41.697Z,1.97
2019-02-10T12:43:46.981Z,2.80
2019-02-10T12:44:52.127Z,3.47
2019-02-10T12:45:57.294Z,3.83
2019-02-10T12:47:02.493Z,4.37
2019-02-10T12:48:07.748Z,6.37
2019-02-10T12:49:12.979Z,3.83
2019-02-10T12:50:18.233Z,5.27
2019-02-10T12:51:23.391Z,2.90
2019-02-10T12:52:28.650Z,3.00
2019-02-10T12:53:33.941Z,2.87
2019-02-10T12:54:39.091Z,3.00
2019-02-10T12:55:44.339Z,2.40
2019-02-10T12:56:49.554Z,2.60
2019-02-10T12:57:54.784Z,2.90
2019-02-10T12:59:00.036Z,2.80
2019-02-10T13:00:06.191Z,2.53
2019-02-10T13:01:11.487Z,2.53
2019-02-10T13:02:16.849Z,2.50
2019-02-10T13:03:22.104Z,2.80
2019-02-10T13:04:27.575Z,3.17
2019-02-10T13:05:32.796Z,2.90
2019-02-10T13:06:38.006Z,2.87
2019-02-10T13:07:43.273Z,3.37
2019-02-10T13:08:48.549Z,3.27
2019-02-10T13:09:53.820Z,3.47
2019-02-10T13:11:00.163Z,3.90
2019-02-10T13:12:05.639Z,4.80
2019-02-10T13:13:18.946Z,5.37
2019-02-10T13:14:18.155Z,5.10
2019-02-10T13:15:23.675Z,5.40
2019-02-10T13:16:28.938Z,6.17
2019-02-10T13:17:34.207Z,6.50
2019-02-10T13:18:42.265Z,6.40
2019-02-10T13:19:47.553Z,6.83
2019-02-10T13:20:52.857Z,7.20
2019-02-10T13:21:59.489Z,6.90
2019-02-10T13:23:04.816Z,7.83
2019-02-10T13:24:10.129Z,7.73
2019-02-10T13:25:15.486Z,7.07
2019-02-10T13:26:21.841Z,8.23
2019-02-10T13:27:27.213Z,6.93
2019-02-10T13:28:32.578Z,7.70
2019-02-10T13:29:37.756Z,6.63
2019-02-10T13:30:43.012Z,8.63
2019-02-10T13:31:48.693Z,6.80
2019-02-10T13:32:54.011Z,8.57
2019-02-10T13:33:59.279Z,9.47
2019-02-10T13:35:05.754Z,7.77
2019-02-10T13:36:11.051Z,7.57
2019-02-10T13:37:16.366Z,7.93
2019-02-10T13:38:21.627Z,7.90
2019-02-10T13:39:26.806Z,7.20
2019-02-10T13:40:32.030Z,7.87
2019-02-10T13:41:36.531Z,6.70
2019-02-10T13:42:41.891Z,6.87
2019-02-10T13:43:47.163Z,6.77
2019-02-10T13:44:52.438Z,7.27
2019-02-10T13:45:57.689Z,6.00
2019-02-10T13:47:03.023Z,6.73
2019-02-10T13:48:09.658Z,5.60
2019-02-10T13:49:14.906Z,5.97
2019-02-10T13:50:20.125Z,5.63
2019-02-10T13:51:26.244Z,5.20
2019-02-10T13:52:32.493Z,5.10
2019-02-10T13:53:38.394Z,4.80
2019-02-10T13:54:43.685Z,4.43
2019-02-10T13:55:48.955Z,4.23
2019-02-10T13:56:54.221Z,3.50
2019-02-10T13:57:59.473Z,3.80
2019-02-10T13:59:04.795Z,3.83
2019-02-10T14:00:13.392Z,4.00
2019-02-10T14:01:19.729Z,4.27
2019-02-10T14:02:24.938Z,4.07
2019-02-10T14:03:30.095Z,3.73
2019-02-10T14:04:35.367Z,3.83
2019-02-10T14:05:40.690Z,4.40
2019-02-10T14:06:48.449Z,4.80
2019-02-10T14:07:53.609Z,4.57
2019-02-10T14:08:58.799Z,4.27
2019-02-10T14:10:04.206Z,3.80
2019-02-10T14:11:09.449Z,4.30
2019-02-10T14:12:14.663Z,3.00
2019-02-10T14:13:19.767Z,2.87
2019-02-10T14:14:25.018Z,3.00
2019-02-10T14:15:30.297Z,2.70
2019-02-10T14:16:35.531Z,2.30
2019-02-10T14:17:40.700Z,2.27
2019-02-10T14:18:45.879Z,2.37
2019-02-10T14:19:51.128Z,1.77
2019-02-10T14:20:56.430Z,1.83
2019-02-10T14:22:01.681Z,1.70
2019-02-10T14:23:09.811Z,1.67
2019-02-10T14:24:15.067Z,2.10
2019-02-10T14:25:20.396Z,1.70
2019-02-10T14:26:25.656Z,1.30
2019-02-10T14:27:30.901Z,1.30
2019-02-10T14:28:36.069Z,1.30
2019-02-10T14:29:42.415Z,1.00
2019-02-10T14:30:47.647Z,1.00
2019-02-10T14:31:52.799Z,1.17
2019-02-10T14:32:58.042Z,1.30
2019-02-10T14:34:03.491Z,1.30
2019-02-10T14:35:09.895Z,1.30
2019-02-10T14:36:15.059Z,1.40
2019-02-10T14:37:20.368Z,1.20
2019-02-10T14:38:25.504Z,1.10
2019-02-10T14:39:30.668Z,1.17
2019-02-10T14:40:35.835Z,1.20
2019-02-10T14:41:41.188Z,1.50
2019-02-10T14:42:46.438Z,1.20
2019-02-10T14:43:51.736Z,1.00
2019-02-10T14:44:57.075Z,1.30
2019-02-10T14:46:02.524Z,1.17
2019-02-10T14:47:08.186Z,1.30
2019-02-10T14:48:13.419Z,1.30
2019-02-10T14:49:18.934Z,1.50
2019-02-10T14:50:24.248Z,1.10
2019-02-10T14:51:29.470Z,1.30
2019-02-10T14:52:34.710Z,1.13
2019-02-10T14:53:40.012Z,1.17
2019-02-10T14:54:45.160Z,1.13
2019-02-10T14:55:50.387Z,1.10
2019-02-10T14:56:55.554Z,1.40
2019-02-10T14:58:00.920Z,1.50
2019-02-10T14:59:06.244Z,1.60
2019-02-10T15:00:13.669Z,1.47
2019-02-10T15:01:18.949Z,1.80
2019-02-10T15:02:24.269Z,1.30
2019-02-10T15:03:29.570Z,1.37
2019-02-10T15:04:34.882Z,1.50
2019-02-10T15:05:41.946Z,1.30
2019-02-10T15:06:47.300Z,1.77
2019-02-10T15:07:52.593Z,1.43